sensor_id;sensor_type;location;lat;lon;timestamp;pressure;altitude;pressure_sealevel;temperature
45034;BMP280;30771;47.988;-4.186;2024-02-21T00:00:08;101649.25;;;11.92
45034;BMP280;30771;47.988;-4.186;2024-02-21T00:02:37;101646.47;;;11.94
45034;BMP280;30771;47.988;-4.186;2024-02-21T00:05:04;101635.91;;;11.94
45034;BMP280;30771;47.988;-4.186;2024-02-21T00:07:31;101631.44;;;11.94
45034;BMP280;30771;47.988;-4.186;2024-02-21T00:09:58;101635.69;;;11.95
45034;BMP280;30771;47.988;-4.186;2024-02-21T00:12:25;101622.69;;;11.94
45034;BMP280;30771;47.988;-4.186;2024-02-21T00:14:51;101630.41;;;11.95
45034;BMP280;30771;47.988;-4.186;2024-02-21T00:17:18;101619.00;;;11.95
45034;BMP280;30771;47.988;-4.186;2024-02-21T00:19:45;101604.00;;;11.95
45034;BMP280;30771;47.988;-4.186;2024-02-21T00:22:12;101604.81;;;11.96
45034;BMP280;30771;47.988;-4.186;2024-02-21T00:24:38;101613.72;;;11.95
45034;BMP280;30771;47.988;-4.186;2024-02-21T00:27:05;101613.38;;;11.98
45034;BMP280;30771;47.988;-4.186;2024-02-21T00:29:32;101616.03;;;11.98
45034;BMP280;30771;47.988;-4.186;2024-02-21T00:31:58;101619.69;;;11.97
45034;BMP280;30771;47.988;-4.186;2024-02-21T00:34:25;101626.59;;;11.98
45034;BMP280;30771;47.988;-4.186;2024-02-21T00:36:52;101624.97;;;11.97
45034;BMP280;30771;47.988;-4.186;2024-02-21T00:39:19;101625.59;;;11.99
45034;BMP280;30771;47.988;-4.186;2024-02-21T00:41:45;101634.16;;;12.01
45034;BMP280;30771;47.988;-4.186;2024-02-21T00:44:12;101632.34;;;12.01
45034;BMP280;30771;47.988;-4.186;2024-02-21T00:46:39;101636.59;;;12.02
45034;BMP280;30771;47.988;-4.186;2024-02-21T00:49:06;101653.25;;;12.03
45034;BMP280;30771;47.988;-4.186;2024-02-21T00:51:33;101659.38;;;12.03
45034;BMP280;30771;47.988;-4.186;2024-02-21T00:54:00;101650.63;;;12.03
45034;BMP280;30771;47.988;-4.186;2024-02-21T00:56:27;101651.25;;;12.05
45034;BMP280;30771;47.988;-4.186;2024-02-21T00:58:54;101653.75;;;12.06
45034;BMP280;30771;47.988;-4.186;2024-02-21T01:01:25;101661.50;;;12.08
45034;BMP280;30771;47.988;-4.186;2024-02-21T01:03:52;101658.84;;;12.08
45034;BMP280;30771;47.988;-4.186;2024-02-21T01:06:20;101663.16;;;12.09
45034;BMP280;30771;47.988;-4.186;2024-02-21T01:08:47;101655.22;;;12.09
45034;BMP280;30771;47.988;-4.186;2024-02-21T01:11:15;101649.94;;;12.09
45034;BMP280;30771;47.988;-4.186;2024-02-21T01:13:42;101646.66;;;12.07
45034;BMP280;30771;47.988;-4.186;2024-02-21T01:16:09;101643.84;;;12.08
45034;BMP280;30771;47.988;-4.186;2024-02-21T01:18:39;101637.09;;;12.06
45034;BMP280;30771;47.988;-4.186;2024-02-21T01:21:07;101627.34;;;12.06
45034;BMP280;30771;47.988;-4.186;2024-02-21T01:23:34;101640.00;;;12.11
45034;BMP280;30771;47.988;-4.186;2024-02-21T01:26:03;101639.38;;;12.09
45034;BMP280;30771;47.988;-4.186;2024-02-21T01:28:30;101622.34;;;12.11
45034;BMP280;30771;47.988;-4.186;2024-02-21T01:30:57;101615.63;;;12.09
45034;BMP280;30771;47.988;-4.186;2024-02-21T01:33:24;101621.31;;;12.12
45034;BMP280;30771;47.988;-4.186;2024-02-21T01:35:50;101610.75;;;12.12
45034;BMP280;30771;47.988;-4.186;2024-02-21T01:38:17;101607.13;;;12.13
45034;BMP280;30771;47.988;-4.186;2024-02-21T01:40:44;101599.22;;;12.13
45034;BMP280;30771;47.988;-4.186;2024-02-21T01:43:21;101607.13;;;12.13
45034;BMP280;30771;47.988;-4.186;2024-02-21T01:45:56;101600.03;;;12.14
45034;BMP280;30771;47.988;-4.186;2024-02-21T01:48:23;101594.56;;;12.15
45034;BMP280;30771;47.988;-4.186;2024-02-21T01:50:51;101596.72;;;12.12
45034;BMP280;30771;47.988;-4.186;2024-02-21T01:53:23;101597.22;;;12.15
45034;BMP280;30771;47.988;-4.186;2024-02-21T01:55:52;101591.09;;;12.15
45034;BMP280;30771;47.988;-4.186;2024-02-21T01:58:20;101580.53;;;12.15
45034;BMP280;30771;47.988;-4.186;2024-02-21T02:00:47;101576.09;;;12.15
45034;BMP280;30771;47.988;-4.186;2024-02-21T02:03:14;101573.44;;;12.15
45034;BMP280;30771;47.988;-4.186;2024-02-21T02:05:48;101558.41;;;12.16
45034;BMP280;30771;47.988;-4.186;2024-02-21T02:08:16;101566.50;;;12.14
45034;BMP280;30771;47.988;-4.186;2024-02-21T02:10:43;101564.06;;;12.13
45034;BMP280;30771;47.988;-4.186;2024-02-21T02:13:11;101548.03;;;12.14
45034;BMP280;30771;47.988;-4.186;2024-02-21T02:15:48;101534.03;;;12.14
45034;BMP280;30771;47.988;-4.186;2024-02-21T02:18:17;101551.69;;;12.13
45034;BMP280;30771;47.988;-4.186;2024-02-21T02:20:44;101550.47;;;12.16
45034;BMP280;30771;47.988;-4.186;2024-02-21T02:23:29;101535.47;;;12.16
45034;BMP280;30771;47.988;-4.186;2024-02-21T02:25:56;101532.38;;;12.13
45034;BMP280;30771;47.988;-4.186;2024-02-21T02:28:23;101531.19;;;12.15
45034;BMP280;30771;47.988;-4.186;2024-02-21T02:30:50;101526.09;;;12.14
45034;BMP280;30771;47.988;-4.186;2024-02-21T02:33:17;101513.69;;;12.14
45034;BMP280;30771;47.988;-4.186;2024-02-21T02:35:45;101511.06;;;12.14
45034;BMP280;30771;47.988;-4.186;2024-02-21T02:38:12;101493.59;;;12.13
45034;BMP280;30771;47.988;-4.186;2024-02-21T02:40:40;101494.41;;;12.14
45034;BMP280;30771;47.988;-4.186;2024-02-21T02:43:08;101469.19;;;12.11
45034;BMP280;30771;47.988;-4.186;2024-02-21T02:45:35;101476.28;;;12.11
45034;BMP280;30771;47.988;-4.186;2024-02-21T02:48:02;101465.53;;;12.12
45034;BMP280;30771;47.988;-4.186;2024-02-21T02:50:29;101476.09;;;12.12
45034;BMP280;30771;47.988;-4.186;2024-02-21T02:52:56;101462.06;;;12.12
45034;BMP280;30771;47.988;-4.186;2024-02-21T02:55:23;101457.59;;;12.12
45034;BMP280;30771;47.988;-4.186;2024-02-21T02:57:50;101448.44;;;12.08
45034;BMP280;30771;47.988;-4.186;2024-02-21T03:00:17;101443.16;;;12.08
45034;BMP280;30771;47.988;-4.186;2024-02-21T03:02:45;101431.16;;;12.06
45034;BMP280;30771;47.988;-4.186;2024-02-21T03:05:17;101424.69;;;12.08
45034;BMP280;30771;47.988;-4.186;2024-02-21T03:07:45;101426.69;;;12.06
45034;BMP280;30771;47.988;-4.186;2024-02-21T03:10:13;101410.66;;;12.08
45034;BMP280;30771;47.988;-4.186;2024-02-21T03:12:40;101408.22;;;12.06
45034;BMP280;30771;47.988;-4.186;2024-02-21T03:15:07;101401.91;;;12.07
45034;BMP280;30771;47.988;-4.186;2024-02-21T03:17:34;101391.34;;;12.07
45034;BMP280;30771;47.988;-4.186;2024-02-21T03:20:04;101381.81;;;12.06
45034;BMP280;30771;47.988;-4.186;2024-02-21T03:22:39;101369.44;;;12.07
45034;BMP280;30771;47.988;-4.186;2024-02-21T03:25:08;101366.59;;;12.08
45034;BMP280;30771;47.988;-4.186;2024-02-21T03:27:35;101348.94;;;12.09
45034;BMP280;30771;47.988;-4.186;2024-02-21T03:30:02;101355.22;;;12.08
45034;BMP280;30771;47.988;-4.186;2024-02-21T03:32:29;101340.41;;;12.07
45034;BMP280;30771;47.988;-4.186;2024-02-21T03:34:56;101337.75;;;12.07
45034;BMP280;30771;47.988;-4.186;2024-02-21T03:37:23;101323.09;;;12.04
45034;BMP280;30771;47.988;-4.186;2024-02-21T03:39:50;101328.38;;;12.04
45034;BMP280;30771;47.988;-4.186;2024-02-21T03:42:17;101311.72;;;12.04
45034;BMP280;30771;47.988;-4.186;2024-02-21T03:44:43;101309.22;;;12.02
45034;BMP280;30771;47.988;-4.186;2024-02-21T03:47:10;101304.78;;;12.03
45034;BMP280;30771;47.988;-4.186;2024-02-21T03:49:38;101310.06;;;12.03
45034;BMP280;30771;47.988;-4.186;2024-02-21T03:52:05;101313.72;;;12.02
45034;BMP280;30771;47.988;-4.186;2024-02-21T03:54:32;101306.44;;;12.04
45034;BMP280;30771;47.988;-4.186;2024-02-21T03:56:58;101298.69;;;12.02
45034;BMP280;30771;47.988;-4.186;2024-02-21T03:59:25;101288.78;;;12.04
45034;BMP280;30771;47.988;-4.186;2024-02-21T04:01:52;101258.28;;;12.02
45034;BMP280;30771;47.988;-4.186;2024-02-21T04:04:20;101270.47;;;12.03
45034;BMP280;30771;47.988;-4.186;2024-02-21T04:06:50;101243.69;;;12.06
45034;BMP280;30771;47.988;-4.186;2024-02-21T04:09:17;101262.19;;;12.06
45034;BMP280;30771;47.988;-4.186;2024-02-21T04:11:44;101248.97;;;12.06
45034;BMP280;30771;47.988;-4.186;2024-02-21T04:14:11;101251.63;;;12.06
45034;BMP280;30771;47.988;-4.186;2024-02-21T04:16:38;101241.06;;;12.06
45034;BMP280;30771;47.988;-4.186;2024-02-21T04:19:06;101242.88;;;12.05
45034;BMP280;30771;47.988;-4.186;2024-02-21T04:21:35;101236.41;;;12.08
45034;BMP280;30771;47.988;-4.186;2024-02-21T04:24:02;101228.84;;;12.05
45034;BMP280;30771;47.988;-4.186;2024-02-21T04:26:33;101224.41;;;12.05
45034;BMP280;30771;47.988;-4.186;2024-02-21T04:29:00;101224.22;;;12.07
45034;BMP280;30771;47.988;-4.186;2024-02-21T04:31:27;101223.22;;;12.08
45034;BMP280;30771;47.988;-4.186;2024-02-21T04:33:54;101212.66;;;12.08
45034;BMP280;30771;47.988;-4.186;2024-02-21T04:36:20;101192.34;;;12.08
45034;BMP280;30771;47.988;-4.186;2024-02-21T04:38:47;101192.13;;;12.10
45034;BMP280;30771;47.988;-4.186;2024-02-21T04:41:14;101190.31;;;12.10
45034;BMP280;30771;47.988;-4.186;2024-02-21T04:43:41;101181.56;;;12.10
45034;BMP280;30771;47.988;-4.186;2024-02-21T04:46:08;101176.13;;;12.11
45034;BMP280;30771;47.988;-4.186;2024-02-21T04:48:34;101174.28;;;12.12
45034;BMP280;30771;47.988;-4.186;2024-02-21T04:51:01;101173.28;;;12.13
45034;BMP280;30771;47.988;-4.186;2024-02-21T04:53:28;101159.09;;;12.14
45034;BMP280;30771;47.988;-4.186;2024-02-21T04:55:54;101144.88;;;12.15
45034;BMP280;30771;47.988;-4.186;2024-02-21T04:58:21;101144.03;;;12.14
45034;BMP280;30771;47.988;-4.186;2024-02-21T05:00:48;101143.66;;;12.17
45034;BMP280;30771;47.988;-4.186;2024-02-21T05:03:15;101136.53;;;12.18
45034;BMP280;30771;47.988;-4.186;2024-02-21T05:05:42;101122.53;;;12.17
45034;BMP280;30771;47.988;-4.186;2024-02-21T05:08:09;101109.53;;;12.16
45034;BMP280;30771;47.988;-4.186;2024-02-21T05:10:36;101107.91;;;12.15
45034;BMP280;30771;47.988;-4.186;2024-02-21T05:13:03;101098.97;;;12.16
45034;BMP280;30771;47.988;-4.186;2024-02-21T05:15:31;101084.97;;;12.15
45034;BMP280;30771;47.988;-4.186;2024-02-21T05:17:58;101089.22;;;12.16
45034;BMP280;30771;47.988;-4.186;2024-02-21T05:20:24;101077.25;;;12.14
45034;BMP280;30771;47.988;-4.186;2024-02-21T05:22:53;101070.13;;;12.14
45034;BMP280;30771;47.988;-4.186;2024-02-21T05:25:20;101057.94;;;12.13
45034;BMP280;30771;47.988;-4.186;2024-02-21T05:27:47;101049.81;;;12.15
45034;BMP280;30771;47.988;-4.186;2024-02-21T05:30:14;101050.03;;;12.13
45034;BMP280;30771;47.988;-4.186;2024-02-21T05:32:41;101042.09;;;12.13
45034;BMP280;30771;47.988;-4.186;2024-02-21T05:35:08;101034.19;;;12.13
45034;BMP280;30771;47.988;-4.186;2024-02-21T05:37:35;101019.16;;;12.14
45034;BMP280;30771;47.988;-4.186;2024-02-21T05:40:02;101009.59;;;12.13
45034;BMP280;30771;47.988;-4.186;2024-02-21T05:42:29;101001.69;;;12.13
45034;BMP280;30771;47.988;-4.186;2024-02-21T05:44:55;101000.69;;;12.14
45034;BMP280;30771;47.988;-4.186;2024-02-21T05:47:22;100987.47;;;12.14
45034;BMP280;30771;47.988;-4.186;2024-02-21T05:49:49;100977.72;;;12.14
45034;BMP280;30771;47.988;-4.186;2024-02-21T05:52:15;100964.50;;;12.14
45034;BMP280;30771;47.988;-4.186;2024-02-21T05:54:42;100960.06;;;12.15
45034;BMP280;30771;47.988;-4.186;2024-02-21T05:57:09;100944.41;;;12.13
45034;BMP280;30771;47.988;-4.186;2024-02-21T05:59:38;100943.38;;;12.14
45034;BMP280;30771;47.988;-4.186;2024-02-21T06:02:06;100925.94;;;12.13
45034;BMP280;30771;47.988;-4.186;2024-02-21T06:04:33;100926.94;;;12.12
45034;BMP280;30771;47.988;-4.186;2024-02-21T06:07:01;100916.75;;;12.09
45034;BMP280;30771;47.988;-4.186;2024-02-21T06:09:28;100926.94;;;12.12
45034;BMP280;30771;47.988;-4.186;2024-02-21T06:11:55;100922.69;;;12.11
45034;BMP280;30771;47.988;-4.186;2024-02-21T06:14:22;100904.38;;;12.10
45034;BMP280;30771;47.988;-4.186;2024-02-21T06:16:48;100902.34;;;12.12
45034;BMP280;30771;47.988;-4.186;2024-02-21T06:19:15;100892.00;;;12.10
45034;BMP280;30771;47.988;-4.186;2024-02-21T06:21:42;100887.13;;;12.07
45034;BMP280;30771;47.988;-4.186;2024-02-21T06:24:09;100878.41;;;12.07
45034;BMP280;30771;47.988;-4.186;2024-02-21T06:26:36;100882.66;;;12.08
45034;BMP280;30771;47.988;-4.186;2024-02-21T06:29:03;100865.41;;;12.05
45034;BMP280;30771;47.988;-4.186;2024-02-21T06:31:30;100865.41;;;12.05
45034;BMP280;30771;47.988;-4.186;2024-02-21T06:33:58;100849.75;;;12.04
45034;BMP280;30771;47.988;-4.186;2024-02-21T06:36:25;100852.41;;;12.04
45034;BMP280;30771;47.988;-4.186;2024-02-21T06:38:52;100841.03;;;12.03
45034;BMP280;30771;47.988;-4.186;2024-02-21T06:41:19;100836.72;;;12.02
45034;BMP280;30771;47.988;-4.186;2024-02-21T06:43:46;100837.38;;;12.04
45034;BMP280;30771;47.988;-4.186;2024-02-21T06:46:25;100824.97;;;11.98
45034;BMP280;30771;47.988;-4.186;2024-02-21T06:48:53;100817.88;;;11.99
45034;BMP280;30771;47.988;-4.186;2024-02-21T06:51:20;100807.13;;;12.00
45034;BMP280;30771;47.988;-4.186;2024-02-21T06:53:47;100800.63;;;11.96
45034;BMP280;30771;47.988;-4.186;2024-02-21T06:56:13;100810.59;;;12.01
45034;BMP280;30771;47.988;-4.186;2024-02-21T06:58:40;100802.66;;;12.01
45034;BMP280;30771;47.988;-4.186;2024-02-21T07:01:08;100809.56;;;12.02
45034;BMP280;30771;47.988;-4.186;2024-02-21T07:03:34;100803.84;;;12.05
45034;BMP280;30771;47.988;-4.186;2024-02-21T07:06:01;100792.50;;;12.04
45034;BMP280;30771;47.988;-4.186;2024-02-21T07:08:28;100804.69;;;12.05
45034;BMP280;30771;47.988;-4.186;2024-02-21T07:10:55;100799.63;;;12.04
45034;BMP280;30771;47.988;-4.186;2024-02-21T07:13:22;100807.31;;;12.05
45034;BMP280;30771;47.988;-4.186;2024-02-21T07:15:49;100791.69;;;12.04
45034;BMP280;30771;47.988;-4.186;2024-02-21T07:18:16;100784.19;;;12.01
45034;BMP280;30771;47.988;-4.186;2024-02-21T07:20:43;100778.66;;;12.02
45034;BMP280;30771;47.988;-4.186;2024-02-21T07:23:10;100783.16;;;12.02
45034;BMP280;30771;47.988;-4.186;2024-02-21T07:25:36;100775.66;;;12.05
45034;BMP280;30771;47.988;-4.186;2024-02-21T07:28:03;100761.84;;;12.03
45034;BMP280;30771;47.988;-4.186;2024-02-21T07:30:30;100760.03;;;12.04
45034;BMP280;30771;47.988;-4.186;2024-02-21T07:32:57;100767.13;;;12.03
45034;BMP280;30771;47.988;-4.186;2024-02-21T07:35:24;100765.47;;;12.02
45034;BMP280;30771;47.988;-4.186;2024-02-21T07:37:51;100767.94;;;12.04
45034;BMP280;30771;47.988;-4.186;2024-02-21T07:40:18;100741.53;;;12.04
45034;BMP280;30771;47.988;-4.186;2024-02-21T07:42:45;100735.66;;;12.02
45034;BMP280;30771;47.988;-4.186;2024-02-21T07:45:17;100749.63;;;12.02
45034;BMP280;30771;47.988;-4.186;2024-02-21T07:47:45;100736.06;;;11.99
45034;BMP280;30771;47.988;-4.186;2024-02-21T07:50:12;100724.06;;;12.03
45034;BMP280;30771;47.988;-4.186;2024-02-21T07:52:39;100704.75;;;12.02
45034;BMP280;30771;47.988;-4.186;2024-02-21T07:55:06;100704.41;;;11.99
45034;BMP280;30771;47.988;-4.186;2024-02-21T07:57:33;100702.56;;;11.99
45034;BMP280;30771;47.988;-4.186;2024-02-21T07:59:59;100686.28;;;12.02
45034;BMP280;30771;47.988;-4.186;2024-02-21T08:02:26;100689.75;;;12.03
45034;BMP280;30771;47.988;-4.186;2024-02-21T08:04:53;100700.91;;;12.05
45034;BMP280;30771;47.988;-4.186;2024-02-21T08:07:20;100706.19;;;12.05
45034;BMP280;30771;47.988;-4.186;2024-02-21T08:09:46;100709.66;;;12.05
45034;BMP280;30771;47.988;-4.186;2024-02-21T08:12:13;100707.84;;;12.06
45034;BMP280;30771;47.988;-4.186;2024-02-21T08:14:40;100702.94;;;12.09
45034;BMP280;30771;47.988;-4.186;2024-02-21T08:17:07;100706.63;;;12.08
45034;BMP280;30771;47.988;-4.186;2024-02-21T08:19:34;100710.69;;;12.11
45034;BMP280;30771;47.988;-4.186;2024-02-21T08:22:01;100712.28;;;12.12
45034;BMP280;30771;47.988;-4.186;2024-02-21T08:24:27;100695.66;;;12.11
45034;BMP280;30771;47.988;-4.186;2024-02-21T08:26:54;100694.84;;;12.11
45034;BMP280;30771;47.988;-4.186;2024-02-21T08:29:21;100679.00;;;12.11
45034;BMP280;30771;47.988;-4.186;2024-02-21T08:31:48;100666.81;;;12.10
45034;BMP280;30771;47.988;-4.186;2024-02-21T08:34:15;100662.34;;;12.10
45034;BMP280;30771;47.988;-4.186;2024-02-21T08:36:43;100647.75;;;12.08
45034;BMP280;30771;47.988;-4.186;2024-02-21T08:39:09;100645.09;;;12.08
45034;BMP280;30771;47.988;-4.186;2024-02-21T08:41:36;100628.66;;;12.06
45034;BMP280;30771;47.988;-4.186;2024-02-21T08:44:27;100620.53;;;12.07
45034;BMP280;30771;47.988;-4.186;2024-02-21T08:46:55;100610.41;;;12.04
45034;BMP280;30771;47.988;-4.186;2024-02-21T08:49:22;100608.53;;;12.05
45034;BMP280;30771;47.988;-4.186;2024-02-21T08:51:50;100597.38;;;12.03
45034;BMP280;30771;47.988;-4.186;2024-02-21T08:54:16;100584.59;;;12.00
45034;BMP280;30771;47.988;-4.186;2024-02-21T08:56:43;100577.28;;;12.02
45034;BMP280;30771;47.988;-4.186;2024-02-21T08:59:10;100583.38;;;12.02
45034;BMP280;30771;47.988;-4.186;2024-02-21T09:01:37;100581.53;;;12.03
45034;BMP280;30771;47.988;-4.186;2024-02-21T09:04:05;100579.50;;;12.05
45034;BMP280;30771;47.988;-4.186;2024-02-21T09:06:32;100569.59;;;12.07
45034;BMP280;30771;47.988;-4.186;2024-02-21T09:09:00;100570.19;;;12.09
45034;BMP280;30771;47.988;-4.186;2024-02-21T09:11:27;100565.28;;;12.12
45034;BMP280;30771;47.988;-4.186;2024-02-21T09:13:54;100552.69;;;12.14
45034;BMP280;30771;47.988;-4.186;2024-02-21T09:16:21;100543.53;;;12.17
45034;BMP280;30771;47.988;-4.186;2024-02-21T09:18:50;100538.88;;;12.19
45034;BMP280;30771;47.988;-4.186;2024-02-21T09:21:18;100535.59;;;12.24
45034;BMP280;30771;47.988;-4.186;2024-02-21T09:23:45;100539.66;;;12.26
45034;BMP280;30771;47.988;-4.186;2024-02-21T09:26:12;100543.72;;;12.29
45034;BMP280;30771;47.988;-4.186;2024-02-21T09:28:43;100527.44;;;12.32
45034;BMP280;30771;47.988;-4.186;2024-02-21T09:31:13;100524.22;;;12.36
45034;BMP280;30771;47.988;-4.186;2024-02-21T09:33:40;100533.53;;;12.39
45034;BMP280;30771;47.988;-4.186;2024-02-21T09:36:08;100518.47;;;12.39
45034;BMP280;30771;47.988;-4.186;2024-02-21T09:38:35;100531.25;;;12.42
45034;BMP280;30771;47.988;-4.186;2024-02-21T09:41:14;100511.53;;;12.45
45034;BMP280;30771;47.988;-4.186;2024-02-21T09:43:45;100520.50;;;12.44
45034;BMP280;30771;47.988;-4.186;2024-02-21T09:46:16;100543.03;;;12.46
45034;BMP280;30771;47.988;-4.186;2024-02-21T09:51:36;100549.28;;;12.52
45034;BMP280;30771;47.988;-4.186;2024-02-21T09:54:03;100545.63;;;12.53
45034;BMP280;30771;47.988;-4.186;2024-02-21T09:56:41;100525.31;;;12.53
45034;BMP280;30771;47.988;-4.186;2024-02-21T09:59:09;100532.22;;;12.54
45034;BMP280;30771;47.988;-4.186;2024-02-21T10:01:36;100508.00;;;12.57
45034;BMP280;30771;47.988;-4.186;2024-02-21T10:04:03;100515.72;;;12.59
45034;BMP280;30771;47.988;-4.186;2024-02-21T10:06:32;100510.25;;;12.60
45034;BMP280;30771;47.988;-4.186;2024-02-21T10:08:59;100534.63;;;12.62
45034;BMP280;30771;47.988;-4.186;2024-02-21T10:11:26;100529.91;;;12.64
45034;BMP280;30771;47.988;-4.186;2024-02-21T10:14:06;100507.19;;;12.63
45034;BMP280;30771;47.988;-4.186;2024-02-21T10:16:34;100522.19;;;12.69
45034;BMP280;30771;47.988;-4.186;2024-02-21T10:19:01;100521.75;;;12.72
45034;BMP280;30771;47.988;-4.186;2024-02-21T10:21:28;100511.56;;;12.76
45034;BMP280;30771;47.988;-4.186;2024-02-21T10:23:55;100497.09;;;12.78
45034;BMP280;30771;47.988;-4.186;2024-02-21T10:26:22;100494.88;;;12.82
45034;BMP280;30771;47.988;-4.186;2024-02-21T10:28:48;100484.47;;;12.87
45034;BMP280;30771;47.988;-4.186;2024-02-21T10:31:28;100483.44;;;12.88
45034;BMP280;30771;47.988;-4.186;2024-02-21T10:34:01;100466.13;;;12.92
45034;BMP280;30771;47.988;-4.186;2024-02-21T10:36:32;100455.13;;;12.95
45034;BMP280;30771;47.988;-4.186;2024-02-21T10:38:59;100459.94;;;12.98
45034;BMP280;30771;47.988;-4.186;2024-02-21T10:41:26;100447.97;;;13.02
45034;BMP280;30771;47.988;-4.186;2024-02-21T10:43:54;100459.91;;;13.04
45034;BMP280;30771;47.988;-4.186;2024-02-21T10:46:23;100444.44;;;13.08
45034;BMP280;30771;47.988;-4.186;2024-02-21T10:49:14;100425.47;;;13.11
45034;BMP280;30771;47.988;-4.186;2024-02-21T10:51:45;100406.34;;;13.15
45034;BMP280;30771;47.988;-4.186;2024-02-21T10:54:40;100409.34;;;13.19
45034;BMP280;30771;47.988;-4.186;2024-02-21T10:57:10;100393.84;;;13.22
45034;BMP280;30771;47.988;-4.186;2024-02-21T10:59:39;100378.59;;;13.24
45034;BMP280;30771;47.988;-4.186;2024-02-21T11:02:06;100381.59;;;13.28
45034;BMP280;30771;47.988;-4.186;2024-02-21T11:04:34;100378.28;;;13.33
45034;BMP280;30771;47.988;-4.186;2024-02-21T11:07:05;100374.16;;;13.37
45034;BMP280;30771;47.988;-4.186;2024-02-21T11:09:37;100372.72;;;13.41
45034;BMP280;30771;47.988;-4.186;2024-02-21T11:12:05;100360.84;;;13.43
45034;BMP280;30771;47.988;-4.186;2024-02-21T11:14:33;100347.81;;;13.48
45034;BMP280;30771;47.988;-4.186;2024-02-21T11:17:17;100341.69;;;13.48
45034;BMP280;30771;47.988;-4.186;2024-02-21T11:19:44;100331.03;;;13.54
45034;BMP280;30771;47.988;-4.186;2024-02-21T11:22:19;100335.53;;;13.54
45034;BMP280;30771;47.988;-4.186;2024-02-21T11:24:49;100321.38;;;13.60
45034;BMP280;30771;47.988;-4.186;2024-02-21T11:27:19;100333.81;;;13.59
45034;BMP280;30771;47.988;-4.186;2024-02-21T11:29:48;100314.50;;;13.59
45034;BMP280;30771;47.988;-4.186;2024-02-21T11:32:20;100317.28;;;13.64
45034;BMP280;30771;47.988;-4.186;2024-02-21T11:34:59;100304.63;;;13.66
45034;BMP280;30771;47.988;-4.186;2024-02-21T11:37:30;100288.75;;;13.66
45034;BMP280;30771;47.988;-4.186;2024-02-21T11:40:00;100289.09;;;13.69
45034;BMP280;30771;47.988;-4.186;2024-02-21T11:42:28;100289.31;;;13.68
45034;BMP280;30771;47.988;-4.186;2024-02-21T11:45:00;100279.31;;;13.70
45034;BMP280;30771;47.988;-4.186;2024-02-21T11:47:28;100286.56;;;13.74
45034;BMP280;30771;47.988;-4.186;2024-02-21T11:49:56;100281.84;;;13.76
45034;BMP280;30771;47.988;-4.186;2024-02-21T11:52:24;100284.50;;;13.76
45034;BMP280;30771;47.988;-4.186;2024-02-21T11:54:53;100265.78;;;13.78
45034;BMP280;30771;47.988;-4.186;2024-02-21T11:57:21;100253.69;;;13.82
45034;BMP280;30771;47.988;-4.186;2024-02-21T11:59:48;100245.53;;;13.83
45034;BMP280;30771;47.988;-4.186;2024-02-21T12:02:19;100233.31;;;13.82
45034;BMP280;30771;47.988;-4.186;2024-02-21T12:04:46;100235.03;;;13.88
45034;BMP280;30771;47.988;-4.186;2024-02-21T12:07:14;100231.38;;;13.89
45034;BMP280;30771;47.988;-4.186;2024-02-21T12:09:41;100229.66;;;13.95
45034;BMP280;30771;47.988;-4.186;2024-02-21T12:12:08;100212.53;;;13.97
45034;BMP280;30771;47.988;-4.186;2024-02-21T12:14:35;100208.03;;;13.98
45034;BMP280;30771;47.988;-4.186;2024-02-21T12:17:02;100201.94;;;13.97
45034;BMP280;30771;47.988;-4.186;2024-02-21T12:19:33;100193.53;;;14.00
45034;BMP280;30771;47.988;-4.186;2024-02-21T12:22:00;100190.66;;;14.02
45034;BMP280;30771;47.988;-4.186;2024-02-21T12:24:28;100171.31;;;14.01
45034;BMP280;30771;47.988;-4.186;2024-02-21T12:26:56;100169.81;;;14.05
45034;BMP280;30771;47.988;-4.186;2024-02-21T12:29:24;100159.00;;;14.07
45034;BMP280;30771;47.988;-4.186;2024-02-21T12:31:51;100162.22;;;14.09
45034;BMP280;30771;47.988;-4.186;2024-02-21T12:34:18;100155.31;;;14.08
45034;BMP280;30771;47.988;-4.186;2024-02-21T12:37:01;100136.09;;;14.12
45034;BMP280;30771;47.988;-4.186;2024-02-21T12:39:29;100134.22;;;14.13
45034;BMP280;30771;47.988;-4.186;2024-02-21T12:41:56;100126.06;;;14.14
45034;BMP280;30771;47.988;-4.186;2024-02-21T12:44:24;100112.84;;;14.14
45034;BMP280;30771;47.988;-4.186;2024-02-21T12:46:51;100109.72;;;14.17
45034;BMP280;30771;47.988;-4.186;2024-02-21T12:49:21;100098.06;;;14.18
45034;BMP280;30771;47.988;-4.186;2024-02-21T12:51:48;100108.66;;;14.18
45034;BMP280;30771;47.988;-4.186;2024-02-21T12:54:15;100097.88;;;14.20
45034;BMP280;30771;47.988;-4.186;2024-02-21T12:56:41;100078.50;;;14.19
45034;BMP280;30771;47.988;-4.186;2024-02-21T12:59:08;100080.59;;;14.17
45034;BMP280;30771;47.988;-4.186;2024-02-21T13:01:38;100087.28;;;14.20
45034;BMP280;30771;47.988;-4.186;2024-02-21T13:04:05;100086.78;;;14.23
45034;BMP280;30771;47.988;-4.186;2024-02-21T13:06:32;100076.78;;;14.25
45034;BMP280;30771;47.988;-4.186;2024-02-21T13:08:59;100080.00;;;14.27
45034;BMP280;30771;47.988;-4.186;2024-02-21T13:11:30;100065.94;;;14.26
45034;BMP280;30771;47.988;-4.186;2024-02-21T13:13:58;100064.91;;;14.27
45034;BMP280;30771;47.988;-4.186;2024-02-21T13:16:25;100065.22;;;14.31
45034;BMP280;30771;47.988;-4.186;2024-02-21T13:18:53;100060.50;;;14.33
45034;BMP280;30771;47.988;-4.186;2024-02-21T13:21:20;100046.78;;;14.36
45034;BMP280;30771;47.988;-4.186;2024-02-21T13:23:47;100043.56;;;14.34
45034;BMP280;30771;47.988;-4.186;2024-02-21T13:26:13;100051.50;;;14.34
45034;BMP280;30771;47.988;-4.186;2024-02-21T13:28:40;100046.78;;;14.36
45034;BMP280;30771;47.988;-4.186;2024-02-21T13:31:07;100029.88;;;14.37
45034;BMP280;30771;47.988;-4.186;2024-02-21T13:33:34;100043.91;;;14.37
45034;BMP280;30771;47.988;-4.186;2024-02-21T13:36:03;100035.16;;;14.37
45034;BMP280;30771;47.988;-4.186;2024-02-21T13:38:30;100027.22;;;14.37
45034;BMP280;30771;47.988;-4.186;2024-02-21T13:40:56;100029.88;;;14.37
45034;BMP280;30771;47.988;-4.186;2024-02-21T13:43:23;100028.81;;;14.38
45034;BMP280;30771;47.988;-4.186;2024-02-21T13:46:00;100021.41;;;14.40
45034;BMP280;30771;47.988;-4.186;2024-02-21T13:48:29;100018.22;;;14.38
45034;BMP280;30771;47.988;-4.186;2024-02-21T13:50:56;100018.00;;;14.39